sensor_id;sensor_type;location;lat;lon;timestamp;pressure;altitude;pressure_sealevel;temperature;humidity
79544;BME280;68994;47.176;7.534;2023-05-07T00:00:26;95843.13;;;13.05;77.55
79544;BME280;68994;47.176;7.534;2023-05-07T00:02:52;95871.44;;;13.22;77.73
79544;BME280;68994;47.176;7.534;2023-05-07T00:05:19;95873.88;;;13.18;76.93
79544;BME280;68994;47.176;7.534;2023-05-07T00:07:46;95876.09;;;13.06;77.95
79544;BME280;68994;47.176;7.534;2023-05-07T00:10:13;95829.41;;;12.67;77.98
79544;BME280;68994;47.176;7.534;2023-05-07T00:12:40;95879.59;;;12.96;77.99
79544;BME280;68994;47.176;7.534;2023-05-07T00:15:07;95892.16;;;13.06;78.40
79544;BME280;68994;47.176;7.534;2023-05-07T00:17:36;95875.25;;;13.05;77.88
79544;BME280;68994;47.176;7.534;2023-05-07T00:20:04;95875.25;;;13.05;77.95
79544;BME280;68994;47.176;7.534;2023-05-07T00:22:31;95871.53;;;13.06;78.06
79544;BME280;68994;47.176;7.534;2023-05-07T00:24:58;95884.63;;;13.13;77.35
79544;BME280;68994;47.176;7.534;2023-05-07T00:27:25;95879.25;;;13.13;77.72
79544;BME280;68994;47.176;7.534;2023-05-07T00:29:52;95883.81;;;13.12;77.42
79544;BME280;68994;47.176;7.534;2023-05-07T00:32:19;95882.75;;;13.08;77.13
79544;BME280;68994;47.176;7.534;2023-05-07T00:34:47;95879.81;;;13.10;77.50
79544;BME280;68994;47.176;7.534;2023-05-07T00:37:14;95879.53;;;13.11;77.69
79544;BME280;68994;47.176;7.534;2023-05-07T00:39:41;95879.81;;;13.10;77.03
79544;BME280;68994;47.176;7.534;2023-05-07T00:42:08;95824.28;;;12.76;78.11
79544;BME280;68994;47.176;7.534;2023-05-07T00:44:35;95878.47;;;13.12;78.39
79544;BME280;68994;47.176;7.534;2023-05-07T00:47:03;95884.38;;;13.09;77.71
79544;BME280;68994;47.176;7.534;2023-05-07T00:49:37;95823.50;;;12.70;78.05
79544;BME280;68994;47.176;7.534;2023-05-07T00:52:07;95859.03;;;12.86;77.61
79544;BME280;68994;47.176;7.534;2023-05-07T00:54:34;95874.25;;;12.96;77.30
79544;BME280;68994;47.176;7.534;2023-05-07T00:57:02;95875.34;;;12.90;78.14
79544;BME280;68994;47.176;7.534;2023-05-07T00:59:32;95868.41;;;12.89;78.81
79544;BME280;68994;47.176;7.534;2023-05-07T01:01:59;95870.03;;;12.79;78.41
79544;BME280;68994;47.176;7.534;2023-05-07T01:04:26;95874.84;;;12.83;78.36
79544;BME280;68994;47.176;7.534;2023-05-07T01:06:54;95871.94;;;12.79;77.49
79544;BME280;68994;47.176;7.534;2023-05-07T01:09:24;95822.28;;;12.42;77.83
79544;BME280;68994;47.176;7.534;2023-05-07T01:11:52;95865.28;;;12.66;77.78
79544;BME280;68994;47.176;7.534;2023-05-07T01:14:19;95867.69;;;12.68;78.19
79544;BME280;68994;47.176;7.534;2023-05-07T01:16:46;95866.63;;;12.64;78.04
79544;BME280;68994;47.176;7.534;2023-05-07T01:19:14;95868.25;;;12.54;77.88
79544;BME280;68994;47.176;7.534;2023-05-07T01:21:46;95868.56;;;12.42;78.21
79544;BME280;68994;47.176;7.534;2023-05-07T01:24:15;95865.09;;;12.42;78.78
79544;BME280;68994;47.176;7.534;2023-05-07T01:26:42;95871.25;;;12.42;78.36
79544;BME280;68994;47.176;7.534;2023-05-07T01:29:09;95860.59;;;12.27;78.27
79544;BME280;68994;47.176;7.534;2023-05-07T01:31:36;95755.84;;;11.68;78.37
79544;BME280;68994;47.176;7.534;2023-05-07T01:34:04;95864.06;;;12.28;78.47
79544;BME280;68994;47.176;7.534;2023-05-07T01:36:34;95819.44;;;11.97;78.92
79544;BME280;68994;47.176;7.534;2023-05-07T01:39:01;95876.38;;;12.29;79.35
79544;BME280;68994;47.176;7.534;2023-05-07T01:41:30;95864.63;;;12.14;79.46
79544;BME280;68994;47.176;7.534;2023-05-07T01:43:58;95869.94;;;12.19;78.94
79544;BME280;68994;47.176;7.534;2023-05-07T01:46:26;95873.44;;;12.30;79.26
79544;BME280;68994;47.176;7.534;2023-05-07T01:48:53;95837.59;;;12.11;79.45
79544;BME280;68994;47.176;7.534;2023-05-07T01:51:19;95820.53;;;11.91;78.69
79544;BME280;68994;47.176;7.534;2023-05-07T01:53:47;95881.44;;;12.30;78.75
79544;BME280;68994;47.176;7.534;2023-05-07T01:56:16;95879.84;;;12.29;79.48
79544;BME280;68994;47.176;7.534;2023-05-07T01:58:44;95887.88;;;12.24;78.91
79544;BME280;68994;47.176;7.534;2023-05-07T02:01:12;95891.63;;;12.18;79.22
79544;BME280;68994;47.176;7.534;2023-05-07T02:03:39;95878.53;;;12.11;79.22
79544;BME280;68994;47.176;7.534;2023-05-07T02:06:05;95878.25;;;12.07;79.68
79544;BME280;68994;47.176;7.534;2023-05-07T02:08:32;95879.34;;;11.96;78.67
79544;BME280;68994;47.176;7.534;2023-05-07T02:10:59;95883.88;;;11.91;79.68
79544;BME280;68994;47.176;7.534;2023-05-07T02:13:28;95894.34;;;11.92;79.89
79544;BME280;68994;47.176;7.534;2023-05-07T02:15:56;95892.72;;;11.91;80.44
79544;BME280;68994;47.176;7.534;2023-05-07T02:18:23;95837.91;;;11.52;80.32
79544;BME280;68994;47.176;7.534;2023-05-07T02:20:50;95873.44;;;11.74;79.04
79544;BME280;68994;47.176;7.534;2023-05-07T02:23:17;95850.72;;;11.50;79.23
79544;BME280;68994;47.176;7.534;2023-05-07T02:25:44;95897.25;;;11.70;80.27
79544;BME280;68994;47.176;7.534;2023-05-07T02:28:11;95854.19;;;11.41;78.95
79544;BME280;68994;47.176;7.534;2023-05-07T02:30:38;95833.06;;;11.13;79.04
79544;BME280;68994;47.176;7.534;2023-05-07T02:33:06;95894.00;;;11.52;79.68
79544;BME280;68994;47.176;7.534;2023-05-07T02:35:33;95892.16;;;11.48;80.81
79544;BME280;68994;47.176;7.534;2023-05-07T02:38:00;95865.66;;;11.31;80.59
79544;BME280;68994;47.176;7.534;2023-05-07T02:40:27;95885.19;;;11.52;80.83
79544;BME280;68994;47.176;7.534;2023-05-07T02:42:53;95884.66;;;11.55;81.10
79544;BME280;68994;47.176;7.534;2023-05-07T02:45:20;95889.50;;;11.58;80.44
79544;BME280;68994;47.176;7.534;2023-05-07T02:47:47;95831.19;;;11.14;79.49
79544;BME280;68994;47.176;7.534;2023-05-07T02:50:15;95894.84;;;11.48;79.90
79544;BME280;68994;47.176;7.534;2023-05-07T02:52:42;95899.09;;;11.44;80.44
79544;BME280;68994;47.176;7.534;2023-05-07T02:55:09;95888.91;;;11.41;79.89
79544;BME280;68994;47.176;7.534;2023-05-07T02:57:35;95887.34;;;11.40;80.71
79544;BME280;68994;47.176;7.534;2023-05-07T03:00:10;95893.75;;;11.49;81.53
79544;BME280;68994;47.176;7.534;2023-05-07T03:02:37;95882.53;;;11.42;80.29
79544;BME280;68994;47.176;7.534;2023-05-07T03:05:05;95881.44;;;11.38;80.61
79544;BME280;68994;47.176;7.534;2023-05-07T03:07:33;95889.44;;;11.38;80.59
79544;BME280;68994;47.176;7.534;2023-05-07T03:10:00;95861.13;;;11.26;80.19
79544;BME280;68994;47.176;7.534;2023-05-07T03:12:27;95835.19;;;11.11;81.33
79544;BME280;68994;47.176;7.534;2023-05-07T03:14:54;95873.16;;;11.39;80.93
79544;BME280;68994;47.176;7.534;2023-05-07T03:17:21;95884.66;;;11.50;81.59
79544;BME280;68994;47.176;7.534;2023-05-07T03:19:47;95883.06;;;11.49;80.96
79544;BME280;68994;47.176;7.534;2023-05-07T03:22:14;95887.34;;;11.50;81.06
79544;BME280;68994;47.176;7.534;2023-05-07T03:24:42;95881.16;;;11.44;80.98
79544;BME280;68994;47.176;7.534;2023-05-07T03:27:09;95890.00;;;11.45;81.28
79544;BME280;68994;47.176;7.534;2023-05-07T03:29:36;95830.13;;;11.10;82.08
79544;BME280;68994;47.176;7.534;2023-05-07T03:32:03;95890.28;;;11.43;80.72
79544;BME280;68994;47.176;7.534;2023-05-07T03:34:30;95897.75;;;11.46;80.86
79544;BME280;68994;47.176;7.534;2023-05-07T03:36:57;95836.25;;;11.10;81.89
79544;BME280;68994;47.176;7.534;2023-05-07T03:39:24;95897.47;;;11.43;80.18
79544;BME280;68994;47.176;7.534;2023-05-07T03:41:52;95882.50;;;11.26;80.43
79544;BME280;68994;47.176;7.534;2023-05-07T03:44:19;95834.34;;;10.95;80.19
79544;BME280;68994;47.176;7.534;2023-05-07T03:46:46;95896.41;;;11.39;81.62
79544;BME280;68994;47.176;7.534;2023-05-07T03:49:12;95902.53;;;11.44;81.86
79544;BME280;68994;47.176;7.534;2023-05-07T03:51:39;95834.88;;;10.98;81.20
79544;BME280;68994;47.176;7.534;2023-05-07T03:54:06;95902.84;;;11.48;82.05
79544;BME280;68994;47.176;7.534;2023-05-07T03:56:32;95902.28;;;11.46;82.02
79544;BME280;68994;47.176;7.534;2023-05-07T03:59:01;95838.66;;;11.12;81.95
79544;BME280;68994;47.176;7.534;2023-05-07T04:01:28;95896.41;;;11.44;81.36
79544;BME280;68994;47.176;7.534;2023-05-07T04:03:55;95918.31;;;11.51;80.33
79544;BME280;68994;47.176;7.534;2023-05-07T04:06:22;95915.38;;;11.42;79.93
79544;BME280;68994;47.176;7.534;2023-05-07T04:08:48;95917.25;;;11.42;81.53
79544;BME280;68994;47.176;7.534;2023-05-07T04:11:15;95922.06;;;11.35;81.17
79544;BME280;68994;47.176;7.534;2023-05-07T04:13:42;95910.53;;;11.29;81.71
79544;BME280;68994;47.176;7.534;2023-05-07T04:16:10;95922.06;;;11.40;82.29
79544;BME280;68994;47.176;7.534;2023-05-07T04:18:37;95924.75;;;11.45;81.60
79544;BME280;68994;47.176;7.534;2023-05-07T04:21:04;95918.28;;;11.30;81.54
79544;BME280;68994;47.176;7.534;2023-05-07T04:23:30;95887.81;;;11.16;82.27
79544;BME280;68994;47.176;7.534;2023-05-07T04:25:57;95940.28;;;11.58;82.26
79544;BME280;68994;47.176;7.534;2023-05-07T04:28:24;95942.41;;;11.66;81.73
79544;BME280;68994;47.176;7.534;2023-05-07T04:30:51;95936.78;;;11.68;81.44
79544;BME280;68994;47.176;7.534;2023-05-07T04:33:19;95904.97;;;11.51;81.41
79544;BME280;68994;47.176;7.534;2023-05-07T04:35:46;95931.16;;;11.64;81.81
79544;BME280;68994;47.176;7.534;2023-05-07T04:38:12;95937.34;;;11.65;81.94
79544;BME280;68994;47.176;7.534;2023-05-07T04:40:39;95938.13;;;11.55;82.53
79544;BME280;68994;47.176;7.534;2023-05-07T04:43:06;95945.34;;;11.60;82.18
79544;BME280;68994;47.176;7.534;2023-05-07T04:45:36;95942.94;;;11.58;81.84
79544;BME280;68994;47.176;7.534;2023-05-07T04:48:05;95895.31;;;11.29;81.01
79544;BME280;68994;47.176;7.534;2023-05-07T04:50:34;95920.47;;;11.54;80.22
79544;BME280;68994;47.176;7.534;2023-05-07T04:53:00;95955.22;;;11.69;80.71
79544;BME280;68994;47.176;7.534;2023-05-07T04:55:28;95903.91;;;11.42;80.81
79544;BME280;68994;47.176;7.534;2023-05-07T04:57:55;95961.66;;;11.74;79.94
79544;BME280;68994;47.176;7.534;2023-05-07T05:00:21;95967.53;;;11.70;80.27
79544;BME280;68994;47.176;7.534;2023-05-07T05:02:48;95975.56;;;11.81;80.13
79544;BME280;68994;47.176;7.534;2023-05-07T05:05:15;95965.13;;;11.69;80.18
79544;BME280;68994;47.176;7.534;2023-05-07T05:07:43;95926.31;;;11.41;80.44
79544;BME280;68994;47.176;7.534;2023-05-07T05:10:10;95990.03;;;11.80;80.29
79544;BME280;68994;47.176;7.534;2023-05-07T05:12:37;95985.75;;;11.84;80.72
79544;BME280;68994;47.176;7.534;2023-05-07T05:15:05;95947.72;;;11.56;81.14
79544;BME280;68994;47.176;7.534;2023-05-07T05:17:32;95991.34;;;11.82;80.60
79544;BME280;68994;47.176;7.534;2023-05-07T05:20:00;96002.09;;;11.93;80.96
79544;BME280;68994;47.176;7.534;2023-05-07T05:22:26;95998.56;;;11.77;80.72
79544;BME280;68994;47.176;7.534;2023-05-07T05:24:56;96019.97;;;11.87;80.79
79544;BME280;68994;47.176;7.534;2023-05-07T05:27:23;96015.47;;;11.98;81.07
79544;BME280;68994;47.176;7.534;2023-05-07T05:29:50;96021.91;;;12.12;80.41
79544;BME280;68994;47.176;7.534;2023-05-07T05:32:17;95992.75;;;12.00;80.22
79544;BME280;68994;47.176;7.534;2023-05-07T05:34:44;96022.16;;;12.21;79.40
79544;BME280;68994;47.176;7.534;2023-05-07T05:37:10;96019.22;;;12.28;79.70
79544;BME280;68994;47.176;7.534;2023-05-07T05:39:37;96014.13;;;12.31;80.24
79544;BME280;68994;47.176;7.534;2023-05-07T05:42:06;95993.25;;;12.28;80.37
79544;BME280;68994;47.176;7.534;2023-05-07T05:44:32;96008.78;;;12.47;80.30
79544;BME280;68994;47.176;7.534;2023-05-07T05:46:59;96008.22;;;12.55;80.50
79544;BME280;68994;47.176;7.534;2023-05-07T05:49:26;95988.44;;;12.51;80.36
79544;BME280;68994;47.176;7.534;2023-05-07T05:51:53;95916.78;;;12.22;81.20
79544;BME280;68994;47.176;7.534;2023-05-07T05:54:19;96009.75;;;12.97;81.23
79544;BME280;68994;47.176;7.534;2023-05-07T05:56:46;95976.09;;;12.80;80.58
79544;BME280;68994;47.176;7.534;2023-05-07T05:59:14;96015.31;;;13.26;80.43
79544;BME280;68994;47.176;7.534;2023-05-07T06:01:41;96019.31;;;13.39;79.45
79544;BME280;68994;47.176;7.534;2023-05-07T06:04:08;96018.13;;;13.55;79.05
79544;BME280;68994;47.176;7.534;2023-05-07T06:06:35;95971.06;;;13.39;79.05
79544;BME280;68994;47.176;7.534;2023-05-07T06:09:02;96008.16;;;13.71;77.61
79544;BME280;68994;47.176;7.534;2023-05-07T06:11:29;96003.34;;;13.68;76.59
79544;BME280;68994;47.176;7.534;2023-05-07T06:13:55;96012.59;;;13.91;76.91
79544;BME280;68994;47.176;7.534;2023-05-07T06:16:24;95967.69;;;13.68;76.55
79544;BME280;68994;47.176;7.534;2023-05-07T06:18:51;96012.47;;;14.07;76.19
79544;BME280;68994;47.176;7.534;2023-05-07T06:21:17;95992.09;;;14.06;75.42
79544;BME280;68994;47.176;7.534;2023-05-07T06:23:44;96019.59;;;14.27;75.83
79544;BME280;68994;47.176;7.534;2023-05-07T06:26:11;95996.00;;;14.24;75.94
79544;BME280;68994;47.176;7.534;2023-05-07T06:28:38;96018.56;;;14.52;76.49
79544;BME280;68994;47.176;7.534;2023-05-07T06:31:12;96020.91;;;14.64;76.10
79544;BME280;68994;47.176;7.534;2023-05-07T06:33:40;96026.56;;;14.62;75.08
79544;BME280;68994;47.176;7.534;2023-05-07T06:36:07;95966.09;;;14.36;75.25
79544;BME280;68994;47.176;7.534;2023-05-07T06:38:33;96022.59;;;14.84;73.78
79544;BME280;68994;47.176;7.534;2023-05-07T06:41:00;96021.16;;;14.97;73.91
79544;BME280;68994;47.176;7.534;2023-05-07T06:43:27;96015.94;;;15.06;75.34
79544;BME280;68994;47.176;7.534;2023-05-07T06:45:54;96015.31;;;15.14;74.49
79544;BME280;68994;47.176;7.534;2023-05-07T06:48:20;96013.41;;;15.14;74.85
79544;BME280;68994;47.176;7.534;2023-05-07T06:50:48;96013.69;;;15.13;72.80
79544;BME280;68994;47.176;7.534;2023-05-07T06:53:15;95937.94;;;14.62;74.99
79544;BME280;68994;47.176;7.534;2023-05-07T06:55:42;95911.69;;;14.54;75.13
79544;BME280;68994;47.176;7.534;2023-05-07T06:58:09;96006.75;;;15.12;75.47
79544;BME280;68994;47.176;7.534;2023-05-07T07:00:35;95987.75;;;15.03;74.67
79544;BME280;68994;47.176;7.534;2023-05-07T07:03:02;95999.88;;;15.00;76.12
79544;BME280;68994;47.176;7.534;2023-05-07T07:05:29;96004.75;;;14.98;73.73
79544;BME280;68994;47.176;7.534;2023-05-07T07:07:57;96003.53;;;15.10;72.94
79544;BME280;68994;47.176;7.534;2023-05-07T07:10:24;96003.44;;;15.20;74.53
79544;BME280;68994;47.176;7.534;2023-05-07T07:12:51;95994.94;;;15.32;73.09
79544;BME280;68994;47.176;7.534;2023-05-07T07:15:19;95991.50;;;15.50;73.68
79544;BME280;68994;47.176;7.534;2023-05-07T07:17:46;96000.84;;;15.53;71.55
79544;BME280;68994;47.176;7.534;2023-05-07T07:20:12;96002.44;;;15.78;72.60
79544;BME280;68994;47.176;7.534;2023-05-07T07:22:39;96003.19;;;15.84;69.67
79544;BME280;68994;47.176;7.534;2023-05-07T07:25:08;95955.22;;;15.48;70.14
79544;BME280;68994;47.176;7.534;2023-05-07T07:27:36;95973.41;;;15.56;70.90
79544;BME280;68994;47.176;7.534;2023-05-07T07:30:06;95997.88;;;15.79;70.69
79544;BME280;68994;47.176;7.534;2023-05-07T07:32:34;96006.88;;;15.88;69.99
79544;BME280;68994;47.176;7.534;2023-05-07T07:35:04;95991.09;;;15.81;70.21
79544;BME280;68994;47.176;7.534;2023-05-07T07:37:31;95992.69;;;16.01;71.06
79544;BME280;68994;47.176;7.534;2023-05-07T07:39:58;96000.44;;;16.22;72.20
79544;BME280;68994;47.176;7.534;2023-05-07T07:42:26;95990.72;;;16.26;68.91
79544;BME280;68994;47.176;7.534;2023-05-07T07:44:54;95931.22;;;16.08;69.66
79544;BME280;68994;47.176;7.534;2023-05-07T07:47:22;95962.44;;;16.42;68.40
79544;BME280;68994;47.176;7.534;2023-05-07T07:49:49;95948.50;;;16.68;68.86
79544;BME280;68994;47.176;7.534;2023-05-07T07:52:16;95989.69;;;17.15;69.44
79544;BME280;68994;47.176;7.534;2023-05-07T07:54:42;95989.78;;;17.24;66.35
79544;BME280;68994;47.176;7.534;2023-05-07T07:57:09;95993.28;;;17.38;69.42
79544;BME280;68994;47.176;7.534;2023-05-07T07:59:38;95980.38;;;17.35;66.71
79544;BME280;68994;47.176;7.534;2023-05-07T08:02:05;95940.97;;;17.12;65.17
79544;BME280;68994;47.176;7.534;2023-05-07T08:04:32;95951.03;;;17.20;64.77
79544;BME280;68994;47.176;7.534;2023-05-07T08:06:59;95990.28;;;17.40;66.38
79544;BME280;68994;47.176;7.534;2023-05-07T08:09:25;95994.25;;;17.01;65.61
79544;BME280;68994;47.176;7.534;2023-05-07T08:11:52;95988.38;;;16.99;65.81
79544;BME280;68994;47.176;7.534;2023-05-07T08:14:19;95976.03;;;16.98;66.56
79544;BME280;68994;47.176;7.534;2023-05-07T08:16:47;95991.16;;;16.94;65.64
79544;BME280;68994;47.176;7.534;2023-05-07T08:19:14;95952.00;;;16.82;65.79
79544;BME280;68994;47.176;7.534;2023-05-07T08:21:40;95992.59;;;17.05;65.88
79544;BME280;68994;47.176;7.534;2023-05-07T08:24:07;95991.69;;;17.10;65.45
79544;BME280;68994;47.176;7.534;2023-05-07T08:26:34;95957.16;;;16.98;65.83
79544;BME280;68994;47.176;7.534;2023-05-07T08:29:01;95945.34;;;17.21;66.45
79544;BME280;68994;47.176;7.534;2023-05-07T08:31:28;95999.53;;;17.75;65.95
79544;BME280;68994;47.176;7.534;2023-05-07T08:33:56;95995.06;;;18.07;64.13
79544;BME280;68994;47.176;7.534;2023-05-07T08:36:23;96002.84;;;18.31;65.70
79544;BME280;68994;47.176;7.534;2023-05-07T08:38:50;95978.31;;;18.19;63.16
79544;BME280;68994;47.176;7.534;2023-05-07T08:41:16;95984.75;;;18.09;62.67
79544;BME280;68994;47.176;7.534;2023-05-07T08:43:47;95980.66;;;18.12;62.45
79544;BME280;68994;47.176;7.534;2023-05-07T08:46:17;96006.38;;;18.32;61.91
79544;BME280;68994;47.176;7.534;2023-05-07T08:48:44;96009.97;;;18.50;65.43
79544;BME280;68994;47.176;7.534;2023-05-07T08:51:16;95994.75;;;18.54;61.97
79544;BME280;68994;47.176;7.534;2023-05-07T08:53:43;95904.72;;;18.13;61.95
79544;BME280;68994;47.176;7.534;2023-05-07T08:56:10;96007.53;;;18.94;59.92
79544;BME280;68994;47.176;7.534;2023-05-07T08:58:37;96007.75;;;18.97;61.75
79544;BME280;68994;47.176;7.534;2023-05-07T09:01:07;96000.00;;;19.13;59.26
79544;BME280;68994;47.176;7.534;2023-05-07T09:03:34;96009.63;;;19.28;57.17
79544;BME280;68994;47.176;7.534;2023-05-07T09:06:01;96004.69;;;19.39;58.93
79544;BME280;68994;47.176;7.534;2023-05-07T09:08:29;96008.09;;;19.53;57.92
79544;BME280;68994;47.176;7.534;2023-05-07T09:10:56;95952.66;;;19.33;60.07
79544;BME280;68994;47.176;7.534;2023-05-07T09:13:23;95962.69;;;19.33;56.29
79544;BME280;68994;47.176;7.534;2023-05-07T09:15:50;96013.50;;;19.53;57.94
79544;BME280;68994;47.176;7.534;2023-05-07T09:18:17;96009.19;;;19.43;57.77
79544;BME280;68994;47.176;7.534;2023-05-07T09:20:44;95992.78;;;19.49;60.28
79544;BME280;68994;47.176;7.534;2023-05-07T09:23:10;95999.97;;;19.44;59.53
79544;BME280;68994;47.176;7.534;2023-05-07T09:25:39;95966.81;;;19.30;61.01
79544;BME280;68994;47.176;7.534;2023-05-07T09:28:05;95938.44;;;19.19;63.32
79544;BME280;68994;47.176;7.534;2023-05-07T09:30:33;95999.50;;;19.60;62.59
79544;BME280;68994;47.176;7.534;2023-05-07T09:33:02;96003.00;;;19.52;63.96
79544;BME280;68994;47.176;7.534;2023-05-07T09:35:30;96002.66;;;19.36;63.15
79544;BME280;68994;47.176;7.534;2023-05-07T09:37:57;96002.88;;;19.17;63.45
79544;BME280;68994;47.176;7.534;2023-05-07T09:40:25;96001.13;;;19.12;64.77
79544;BME280;68994;47.176;7.534;2023-05-07T09:42:54;96004.28;;;19.05;63.80
79544;BME280;68994;47.176;7.534;2023-05-07T09:45:22;95992.94;;;18.95;64.17
79544;BME280;68994;47.176;7.534;2023-05-07T09:47:53;96000.09;;;18.90;65.10
79544;BME280;68994;47.176;7.534;2023-05-07T09:50:22;95999.78;;;18.92;65.09
79544;BME280;68994;47.176;7.534;2023-05-07T09:52:52;95999.56;;;18.88;64.02
79544;BME280;68994;47.176;7.534;2023-05-07T09:55:19;96000.25;;;18.94;64.81
79544;BME280;68994;47.176;7.534;2023-05-07T09:57:48;95959.53;;;18.68;62.44
79544;BME280;68994;47.176;7.534;2023-05-07T10:00:19;95984.09;;;19.12;64.82
79544;BME280;68994;47.176;7.534;2023-05-07T10:02:46;95996.94;;;19.37;64.22
79544;BME280;68994;47.176;7.534;2023-05-07T10:05:15;95995.50;;;19.49;64.29
79544;BME280;68994;47.176;7.534;2023-05-07T10:07:42;95993.47;;;19.54;63.26
79544;BME280;68994;47.176;7.534;2023-05-07T10:10:13;95942.44;;;19.21;64.58
79544;BME280;68994;47.176;7.534;2023-05-07T10:12:40;95980.25;;;19.61;62.53
79544;BME280;68994;47.176;7.534;2023-05-07T10:15:08;95997.19;;;19.76;62.76
79544;BME280;68994;47.176;7.534;2023-05-07T10:17:37;95991.47;;;19.95;60.65
79544;BME280;68994;47.176;7.534;2023-05-07T10:20:05;95999.28;;;20.31;61.10
79544;BME280;68994;47.176;7.534;2023-05-07T10:22:37;95990.94;;;20.80;60.48
79544;BME280;68994;47.176;7.534;2023-05-07T10:25:06;96000.97;;;21.27;55.47
79544;BME280;68994;47.176;7.534;2023-05-07T10:27:36;95987.47;;;21.48;53.82
79544;BME280;68994;47.176;7.534;2023-05-07T10:30:13;95973.94;;;21.69;52.85
79544;BME280;68994;47.176;7.534;2023-05-07T10:32:45;95983.94;;;22.19;53.29
79544;BME280;68994;47.176;7.534;2023-05-07T10:35:16;95984.44;;;22.42;50.59
79544;BME280;68994;47.176;7.534;2023-05-07T10:37:44;95985.09;;;22.39;50.09
79544;BME280;68994;47.176;7.534;2023-05-07T10:40:12;95985.13;;;22.52;53.78
79544;BME280;68994;47.176;7.534;2023-05-07T10:42:53;95966.91;;;22.52;55.37
79544;BME280;68994;47.176;7.534;2023-05-07T10:45:21;95986.72;;;22.53;53.23
79544;BME280;68994;47.176;7.534;2023-05-07T10:48:08;95974.31;;;22.76;50.59
79544;BME280;68994;47.176;7.534;2023-05-07T10:50:35;95964.00;;;22.82;51.25
79544;BME280;68994;47.176;7.534;2023-05-07T10:53:25;95969.84;;;23.18;47.99
79544;BME280;68994;47.176;7.534;2023-05-07T10:59:34;95973.03;;;23.32;50.01
79544;BME280;68994;47.176;7.534;2023-05-07T11:02:07;95928.06;;;23.75;49.95
79544;BME280;68994;47.176;7.534;2023-05-07T11:04:37;95913.63;;;24.43;48.52
79544;BME280;68994;47.176;7.534;2023-05-07T11:07:25;95962.81;;;25.55;43.85
79544;BME280;68994;47.176;7.534;2023-05-07T11:09:56;95943.16;;;25.85;44.66
79544;BME280;68994;47.176;7.534;2023-05-07T11:12:49;95955.16;;;26.55;41.58
79544;BME280;68994;47.176;7.534;2023-05-07T11:15:33;95957.78;;;26.51;43.93
79544;BME280;68994;47.176;7.534;2023-05-07T11:18:02;95958.03;;;26.42;47.28
79544;BME280;68994;47.176;7.534;2023-05-07T11:20:53;95959.75;;;26.12;44.07
79544;BME280;68994;47.176;7.534;2023-05-07T11:26:44;95944.16;;;24.49;47.65
79544;BME280;68994;47.176;7.534;2023-05-07T11:29:12;95932.03;;;24.18;48.86
79544;BME280;68994;47.176;7.534;2023-05-07T11:31:40;95948.53;;;24.10;49.98
79544;BME280;68994;47.176;7.534;2023-05-07T11:34:07;95953.69;;;24.27;49.74
79544;BME280;68994;47.176;7.534;2023-05-07T11:36:42;95957.44;;;23.94;51.12
79544;BME280;68994;47.176;7.534;2023-05-07T11:39:26;95949.41;;;23.85;49.48
79544;BME280;68994;47.176;7.534;2023-05-07T11:41:54;95944.41;;;23.75;50.00
79544;BME280;68994;47.176;7.534;2023-05-07T11:44:20;95952.63;;;23.26;46.67
79544;BME280;68994;47.176;7.534;2023-05-07T11:46:48;95939.50;;;22.57;45.69
79544;BME280;68994;47.176;7.534;2023-05-07T11:49:16;95953.94;;;22.83;48.30
79544;BME280;68994;47.176;7.534;2023-05-07T11:51:44;95960.16;;;22.95;49.62
79544;BME280;68994;47.176;7.534;2023-05-07T11:54:15;95955.03;;;22.69;47.38
79544;BME280;68994;47.176;7.534;2023-05-07T11:56:46;95957.47;;;22.50;47.74
79544;BME280;68994;47.176;7.534;2023-05-07T11:59:17;95948.06;;;22.93;48.07
79544;BME280;68994;47.176;7.534;2023-05-07T12:01:45;95946.50;;;23.41;48.32
79544;BME280;68994;47.176;7.534;2023-05-07T12:04:12;95931.41;;;23.44;40.85
79544;BME280;68994;47.176;7.534;2023-05-07T12:06:39;95936.34;;;23.79;44.59
79544;BME280;68994;47.176;7.534;2023-05-07T12:09:07;95947.44;;;23.98;43.28
79544;BME280;68994;47.176;7.534;2023-05-07T12:11:36;95943.16;;;24.13;44.72
79544;BME280;68994;47.176;7.534;2023-05-07T12:14:05;95940.06;;;24.27;43.86
79544;BME280;68994;47.176;7.534;2023-05-07T12:16:32;95941.53;;;24.24;39.38
79544;BME280;68994;47.176;7.534;2023-05-07T12:18:59;95933.78;;;24.11;41.54
79544;BME280;68994;47.176;7.534;2023-05-07T12:21:26;95943.28;;;23.88;40.29
79544;BME280;68994;47.176;7.534;2023-05-07T12:23:53;95942.94;;;24.18;44.24
79544;BME280;68994;47.176;7.534;2023-05-07T12:26:21;95947.16;;;25.04;42.29
79544;BME280;68994;47.176;7.534;2023-05-07T12:28:48;95931.00;;;25.82;41.50
79544;BME280;68994;47.176;7.534;2023-05-07T12:31:14;95898.31;;;26.25;42.33
79544;BME280;68994;47.176;7.534;2023-05-07T12:33:42;95937.97;;;26.58;40.43
79544;BME280;68994;47.176;7.534;2023-05-07T12:36:11;95926.50;;;26.29;39.11
79544;BME280;68994;47.176;7.534;2023-05-07T12:38:39;95939.44;;;26.13;41.54
79544;BME280;68994;47.176;7.534;2023-05-07T12:41:07;95937.38;;;26.06;40.30
79544;BME280;68994;47.176;7.534;2023-05-07T12:43:36;95937.56;;;25.78;40.10
79544;BME280;68994;47.176;7.534;2023-05-07T12:46:05;95927.22;;;25.51;40.98
79544;BME280;68994;47.176;7.534;2023-05-07T12:48:32;95922.22;;;25.38;42.37
79544;BME280;68994;47.176;7.534;2023-05-07T12:51:00;95900.94;;;24.95;40.02
79544;BME280;68994;47.176;7.534;2023-05-07T12:53:28;95922.75;;;24.63;41.18
79544;BME280;68994;47.176;7.534;2023-05-07T12:55:58;95920.22;;;24.14;42.79
79544;BME280;68994;47.176;7.534;2023-05-07T12:58:26;95933.63;;;23.79;44.33
79544;BME280;68994;47.176;7.534;2023-05-07T13:00:56;95926.41;;;23.58;43.67
79544;BME280;68994;47.176;7.534;2023-05-07T13:03:26;95928.59;;;23.28;42.35
79544;BME280;68994;47.176;7.534;2023-05-07T13:05:54;95935.56;;;23.04;44.13
79544;BME280;68994;47.176;7.534;2023-05-07T13:08:28;95932.03;;;22.79;44.80
79544;BME280;68994;47.176;7.534;2023-05-07T13:10:56;95939.72;;;22.65;45.08